sensor_id;sensor_type;location;lat;lon;timestamp;pressure;altitude;pressure_sealevel;temperature;humidity
83152;BME280;73381;58.502;8.624;2024-03-08T00:00:21;101697.28;;;-3.36;85.18
83152;BME280;73381;58.502;8.624;2024-03-08T00:03:23;101693.84;;;-3.37;86.70
83152;BME280;73381;58.502;8.624;2024-03-08T00:06:26;101686.94;;;-3.42;86.52
83152;BME280;73381;58.502;8.624;2024-03-08T00:09:28;101649.94;;;-3.66;86.13
83152;BME280;73381;58.502;8.624;2024-03-08T00:12:30;101690.38;;;-3.43;86.83
83152;BME280;73381;58.502;8.624;2024-03-08T00:15:31;101593.13;;;-4.04;87.32
83152;BME280;73381;58.502;8.624;2024-03-08T00:18:33;101687.78;;;-3.43;87.52
83152;BME280;73381;58.502;8.624;2024-03-08T00:21:37;101705.88;;;-3.49;87.62
83152;BME280;73381;58.502;8.624;2024-03-08T00:24:38;101652.50;;;-3.75;86.46
83152;BME280;73381;58.502;8.624;2024-03-08T00:27:40;101681.75;;;-3.56;86.48
83152;BME280;73381;58.502;8.624;2024-03-08T00:30:42;101684.34;;;-3.54;87.07
83152;BME280;73381;58.502;8.624;2024-03-08T00:33:44;101686.94;;;-3.54;88.76
83152;BME280;73381;58.502;8.624;2024-03-08T00:36:47;101682.63;;;-3.62;88.16
83152;BME280;73381;58.502;8.624;2024-03-08T00:39:49;101673.16;;;-3.63;87.92
83152;BME280;73381;58.502;8.624;2024-03-08T00:42:51;101673.16;;;-3.63;87.88
83152;BME280;73381;58.502;8.624;2024-03-08T00:45:53;101649.94;;;-3.75;86.80
83152;BME280;73381;58.502;8.624;2024-03-08T00:48:55;101613.78;;;-3.92;87.53
83152;BME280;73381;58.502;8.624;2024-03-08T00:51:59;101619.78;;;-3.82;87.70
83152;BME280;73381;58.502;8.624;2024-03-08T00:55:01;101674.88;;;-3.52;87.60
83152;BME280;73381;58.502;8.624;2024-03-08T00:58:03;101663.69;;;-3.59;88.19
83152;BME280;73381;58.502;8.624;2024-03-08T01:01:04;101661.13;;;-3.58;87.69
83152;BME280;73381;58.502;8.624;2024-03-08T01:04:06;101667.13;;;-3.59;88.27
83152;BME280;73381;58.502;8.624;2024-03-08T01:07:10;101586.22;;;-4.11;87.79
83152;BME280;73381;58.502;8.624;2024-03-08T01:10:12;101503.63;;;-4.73;86.62
83152;BME280;73381;58.502;8.624;2024-03-08T01:13:13;101628.41;;;-3.89;86.78
83152;BME280;73381;58.502;8.624;2024-03-08T01:16:15;101656.81;;;-3.72;87.33
83152;BME280;73381;58.502;8.624;2024-03-08T01:19:17;101654.22;;;-3.71;87.74
83152;BME280;73381;58.502;8.624;2024-03-08T01:22:21;101655.97;;;-3.65;87.29
83152;BME280;73381;58.502;8.624;2024-03-08T01:25:22;101464.13;;;-4.72;87.43
83152;BME280;73381;58.502;8.624;2024-03-08T01:28:25;101650.78;;;-3.62;87.40
83152;BME280;73381;58.502;8.624;2024-03-08T01:31:27;101614.63;;;-3.83;87.40
83152;BME280;73381;58.502;8.624;2024-03-08T01:34:29;101581.94;;;-3.98;87.43
83152;BME280;73381;58.502;8.624;2024-03-08T01:37:32;101639.59;;;-3.61;87.66
83152;BME280;73381;58.502;8.624;2024-03-08T01:40:34;101637.88;;;-3.62;87.61
83152;BME280;73381;58.502;8.624;2024-03-08T01:43:35;101636.16;;;-3.63;88.48
83152;BME280;73381;58.502;8.624;2024-03-08T01:46:37;101609.47;;;-3.73;88.25
83152;BME280;73381;58.502;8.624;2024-03-08T01:49:39;101629.28;;;-3.63;87.54
83152;BME280;73381;58.502;8.624;2024-03-08T01:52:42;101628.41;;;-3.63;87.32
83152;BME280;73381;58.502;8.624;2024-03-08T01:55:45;101575.94;;;-4.05;87.33
83152;BME280;73381;58.502;8.624;2024-03-08T01:58:48;101621.53;;;-3.69;87.46
83152;BME280;73381;58.502;8.624;2024-03-08T02:01:50;101618.94;;;-3.72;87.73
83152;BME280;73381;58.502;8.624;2024-03-08T02:04:52;101612.94;;;-3.72;88.43
83152;BME280;73381;58.502;8.624;2024-03-08T02:07:56;101608.63;;;-3.72;88.49
83152;BME280;73381;58.502;8.624;2024-03-08T02:10:58;101611.22;;;-3.75;86.69
83152;BME280;73381;58.502;8.624;2024-03-08T02:14:00;101616.38;;;-3.72;88.47
83152;BME280;73381;58.502;8.624;2024-03-08T02:17:02;101581.97;;;-3.94;87.63
83152;BME280;73381;58.502;8.624;2024-03-08T02:20:04;101615.50;;;-3.74;87.88
83152;BME280;73381;58.502;8.624;2024-03-08T02:23:08;101616.38;;;-3.72;87.46
83152;BME280;73381;58.502;8.624;2024-03-08T02:26:10;101609.50;;;-3.76;87.26
83152;BME280;73381;58.502;8.624;2024-03-08T02:29:12;101408.25;;;-5.01;87.97
83152;BME280;73381;58.502;8.624;2024-03-08T02:32:14;101603.47;;;-3.76;88.43
83152;BME280;73381;58.502;8.624;2024-03-08T02:35:16;101576.81;;;-3.92;87.73
83152;BME280;73381;58.502;8.624;2024-03-08T02:38:21;101618.97;;;-3.78;87.74
83152;BME280;73381;58.502;8.624;2024-03-08T02:41:24;101595.72;;;-3.78;88.15
83152;BME280;73381;58.502;8.624;2024-03-08T02:44:25;101596.59;;;-3.74;89.31
83152;BME280;73381;58.502;8.624;2024-03-08T02:47:27;101573.34;;;-3.88;88.60
83152;BME280;73381;58.502;8.624;2024-03-08T02:50:29;101413.41;;;-4.83;87.38
83152;BME280;73381;58.502;8.624;2024-03-08T02:53:33;101525.19;;;-4.18;87.29
83152;BME280;73381;58.502;8.624;2024-03-08T02:56:34;101593.13;;;-3.89;88.00
83152;BME280;73381;58.502;8.624;2024-03-08T02:59:37;101592.25;;;-3.95;88.35
83152;BME280;73381;58.502;8.624;2024-03-08T03:02:39;101433.19;;;-4.92;87.78
83152;BME280;73381;58.502;8.624;2024-03-08T03:05:41;101588.81;;;-3.97;87.23
83152;BME280;73381;58.502;8.624;2024-03-08T03:08:48;101591.41;;;-3.94;88.19
83152;BME280;73381;58.502;8.624;2024-03-08T03:11:50;101584.53;;;-3.95;87.89
83152;BME280;73381;58.502;8.624;2024-03-08T03:14:52;101582.81;;;-3.93;88.17
83152;BME280;73381;58.502;8.624;2024-03-08T03:17:53;101588.84;;;-3.93;87.79
83152;BME280;73381;58.502;8.624;2024-03-08T03:20:56;101581.94;;;-3.95;87.91
83152;BME280;73381;58.502;8.624;2024-03-08T03:23:59;101596.56;;;-3.97;88.04
83152;BME280;73381;58.502;8.624;2024-03-08T03:27:01;101575.94;;;-3.93;87.42
83152;BME280;73381;58.502;8.624;2024-03-08T03:30:04;101575.94;;;-3.88;87.32
83152;BME280;73381;58.502;8.624;2024-03-08T03:33:06;101529.47;;;-4.12;88.02
83152;BME280;73381;58.502;8.624;2024-03-08T03:36:08;101544.97;;;-4.03;88.00
83152;BME280;73381;58.502;8.624;2024-03-08T03:39:11;101574.22;;;-3.84;87.14
83152;BME280;73381;58.502;8.624;2024-03-08T03:42:13;101527.75;;;-4.10;87.90
83152;BME280;73381;58.502;8.624;2024-03-08T03:45:15;101567.34;;;-3.89;87.74
83152;BME280;73381;58.502;8.624;2024-03-08T03:48:17;101557.03;;;-3.93;88.39
83152;BME280;73381;58.502;8.624;2024-03-08T03:51:19;101577.66;;;-3.87;88.09
83152;BME280;73381;58.502;8.624;2024-03-08T03:54:23;101537.22;;;-4.09;87.41
83152;BME280;73381;58.502;8.624;2024-03-08T03:57:24;101520.03;;;-4.20;87.24
83152;BME280;73381;58.502;8.624;2024-03-08T04:00:27;101563.03;;;-3.99;87.30
83152;BME280;73381;58.502;8.624;2024-03-08T04:03:29;101557.00;;;-3.99;88.31
83152;BME280;73381;58.502;8.624;2024-03-08T04:06:30;101563.03;;;-3.97;88.83
83152;BME280;73381;58.502;8.624;2024-03-08T04:09:34;101557.88;;;-3.91;88.11
83152;BME280;73381;58.502;8.624;2024-03-08T04:12:42;101497.69;;;-4.22;89.13
83152;BME280;73381;58.502;8.624;2024-03-08T04:15:44;101557.88;;;-3.85;87.75
83152;BME280;73381;58.502;8.624;2024-03-08T04:18:50;101492.53;;;-4.18;88.62
83152;BME280;73381;58.502;8.624;2024-03-08T04:21:52;101489.94;;;-4.21;88.15
83152;BME280;73381;58.502;8.624;2024-03-08T04:24:55;101566.47;;;-3.92;88.67
83152;BME280;73381;58.502;8.624;2024-03-08T04:27:57;101549.28;;;-3.93;89.09
83152;BME280;73381;58.502;8.624;2024-03-08T04:31:00;101541.50;;;-3.96;88.41
83152;BME280;73381;58.502;8.624;2024-03-08T04:34:01;101538.06;;;-3.98;87.25
83152;BME280;73381;58.502;8.624;2024-03-08T04:37:03;101483.06;;;-4.32;87.23
83152;BME280;73381;58.502;8.624;2024-03-08T04:40:07;101536.38;;;-3.93;88.45
83152;BME280;73381;58.502;8.624;2024-03-08T04:43:09;101407.41;;;-4.85;88.21
83152;BME280;73381;58.502;8.624;2024-03-08T04:46:11;101461.56;;;-4.45;88.14
83152;BME280;73381;58.502;8.624;2024-03-08T04:49:13;101518.28;;;-4.10;87.15
83152;BME280;73381;58.502;8.624;2024-03-08T04:52:16;101542.38;;;-3.96;88.44
83152;BME280;73381;58.502;8.624;2024-03-08T04:55:19;101532.06;;;-3.93;88.45
83152;BME280;73381;58.502;8.624;2024-03-08T04:58:21;101520.03;;;-3.98;87.05
83152;BME280;73381;58.502;8.624;2024-03-08T05:01:23;101524.31;;;-3.94;88.09
83152;BME280;73381;58.502;8.624;2024-03-08T05:04:25;101523.44;;;-3.96;87.29
83152;BME280;73381;58.502;8.624;2024-03-08T05:07:26;101508.84;;;-3.99;88.11
83152;BME280;73381;58.502;8.624;2024-03-08T05:10:30;101494.22;;;-4.10;87.62
83152;BME280;73381;58.502;8.624;2024-03-08T05:13:32;101517.44;;;-3.98;88.74
83152;BME280;73381;58.502;8.624;2024-03-08T05:16:33;101506.25;;;-3.97;87.61
83152;BME280;73381;58.502;8.624;2024-03-08T05:19:36;101508.84;;;-3.97;88.56
83152;BME280;73381;58.502;8.624;2024-03-08T05:22:38;101415.16;;;-4.48;88.03
83152;BME280;73381;58.502;8.624;2024-03-08T05:25:41;101501.97;;;-4.04;88.29
83152;BME280;73381;58.502;8.624;2024-03-08T05:28:43;101496.81;;;-4.10;87.17
83152;BME280;73381;58.502;8.624;2024-03-08T05:31:47;101497.66;;;-4.11;87.86
83152;BME280;73381;58.502;8.624;2024-03-08T05:34:49;101486.50;;;-4.12;87.06
83152;BME280;73381;58.502;8.624;2024-03-08T05:37:50;101489.94;;;-4.07;88.22
83152;BME280;73381;58.502;8.624;2024-03-08T05:40:54;101496.81;;;-4.04;87.99
83152;BME280;73381;58.502;8.624;2024-03-08T05:43:56;101453.84;;;-4.30;87.60
83152;BME280;73381;58.502;8.624;2024-03-08T05:46:58;101465.84;;;-4.24;87.64
83152;BME280;73381;58.502;8.624;2024-03-08T05:50:00;101495.94;;;-4.12;86.41
83152;BME280;73381;58.502;8.624;2024-03-08T05:53:01;101410.88;;;-4.60;87.59
83152;BME280;73381;58.502;8.624;2024-03-08T05:56:05;101446.97;;;-4.46;86.92
83152;BME280;73381;58.502;8.624;2024-03-08T05:59:07;101495.09;;;-4.13;86.48
83152;BME280;73381;58.502;8.624;2024-03-08T06:02:09;101495.09;;;-4.18;86.36
83152;BME280;73381;58.502;8.624;2024-03-08T06:05:11;101458.97;;;-4.39;86.26
83152;BME280;73381;58.502;8.624;2024-03-08T06:08:13;101495.97;;;-4.20;86.29
83152;BME280;73381;58.502;8.624;2024-03-08T06:11:17;101495.97;;;-4.22;87.39
83152;BME280;73381;58.502;8.624;2024-03-08T06:14:19;101490.78;;;-4.28;86.83
83152;BME280;73381;58.502;8.624;2024-03-08T06:17:21;101490.81;;;-4.20;87.69
83152;BME280;73381;58.502;8.624;2024-03-08T06:20:22;101511.44;;;-4.22;87.52
83152;BME280;73381;58.502;8.624;2024-03-08T06:23:24;101498.53;;;-4.19;87.57
83152;BME280;73381;58.502;8.624;2024-03-08T06:26:27;101496.81;;;-4.18;87.25
83152;BME280;73381;58.502;8.624;2024-03-08T06:29:31;101492.53;;;-4.18;87.81
83152;BME280;73381;58.502;8.624;2024-03-08T06:32:33;101453.81;;;-4.37;86.93
83152;BME280;73381;58.502;8.624;2024-03-08T06:35:35;101491.63;;;-4.10;86.98
83152;BME280;73381;58.502;8.624;2024-03-08T06:38:37;101465.84;;;-4.24;87.16
83152;BME280;73381;58.502;8.624;2024-03-08T06:41:40;101490.81;;;-4.06;86.90
83152;BME280;73381;58.502;8.624;2024-03-08T06:44:42;101471.88;;;-4.11;88.20
83152;BME280;73381;58.502;8.624;2024-03-08T06:47:44;101477.03;;;-4.11;87.77
83152;BME280;73381;58.502;8.624;2024-03-08T06:50:47;101499.38;;;-3.98;86.65
83152;BME280;73381;58.502;8.624;2024-03-08T06:53:49;101491.66;;;-3.94;88.30
83152;BME280;73381;58.502;8.624;2024-03-08T06:56:52;101371.34;;;-4.63;87.22
83152;BME280;73381;58.502;8.624;2024-03-08T06:59:54;101496.78;;;-3.86;87.68
83152;BME280;73381;58.502;8.624;2024-03-08T07:02:56;101294.06;;;-5.12;86.45
83152;BME280;73381;58.502;8.624;2024-03-08T07:05:58;101460.69;;;-4.04;87.88
83152;BME280;73381;58.502;8.624;2024-03-08T07:09:00;101497.66;;;-3.78;87.01
83152;BME280;73381;58.502;8.624;2024-03-08T07:12:03;101435.78;;;-4.07;86.68
83152;BME280;73381;58.502;8.624;2024-03-08T07:15:06;101492.47;;;-3.66;87.24
83152;BME280;73381;58.502;8.624;2024-03-08T07:18:08;101495.91;;;-3.62;86.25
83152;BME280;73381;58.502;8.624;2024-03-08T07:21:10;101475.25;;;-3.70;87.47
83152;BME280;73381;58.502;8.624;2024-03-08T07:24:12;101486.38;;;-3.52;86.01
83152;BME280;73381;58.502;8.624;2024-03-08T07:27:16;101488.13;;;-3.51;86.96
83152;BME280;73381;58.502;8.624;2024-03-08T07:30:18;101487.22;;;-3.44;86.81
83152;BME280;73381;58.502;8.624;2024-03-08T07:33:20;101492.38;;;-3.41;85.45
83152;BME280;73381;58.502;8.624;2024-03-08T07:36:22;101462.31;;;-3.51;85.25
83152;BME280;73381;58.502;8.624;2024-03-08T07:39:24;101376.41;;;-4.02;86.82
83152;BME280;73381;58.502;8.624;2024-03-08T07:42:28;101339.50;;;-4.18;86.25
83152;BME280;73381;58.502;8.624;2024-03-08T07:45:29;101400.44;;;-3.79;85.39
83152;BME280;73381;58.502;8.624;2024-03-08T07:48:31;101488.00;;;-3.24;86.35
83152;BME280;73381;58.502;8.624;2024-03-08T07:51:33;101433.00;;;-3.52;85.89
83152;BME280;73381;58.502;8.624;2024-03-08T07:54:35;101484.50;;;-3.08;86.30
83152;BME280;73381;58.502;8.624;2024-03-08T07:57:38;101398.59;;;-3.49;84.88
83152;BME280;73381;58.502;8.624;2024-03-08T08:00:40;101478.41;;;-2.91;85.32
83152;BME280;73381;58.502;8.624;2024-03-08T08:03:42;101479.19;;;-2.85;84.43
83152;BME280;73381;58.502;8.624;2024-03-08T08:06:43;101483.53;;;-2.85;85.68
83152;BME280;73381;58.502;8.624;2024-03-08T08:09:45;101458.63;;;-3.00;85.88
83152;BME280;73381;58.502;8.624;2024-03-08T08:12:49;101446.59;;;-3.04;86.20
83152;BME280;73381;58.502;8.624;2024-03-08T08:15:51;101467.94;;;-2.75;85.40
83152;BME280;73381;58.502;8.624;2024-03-08T08:18:52;101464.47;;;-2.66;86.08
83152;BME280;73381;58.502;8.624;2024-03-08T08:21:54;101471.25;;;-2.53;85.78
83152;BME280;73381;58.502;8.624;2024-03-08T08:24:56;101429.84;;;-2.50;86.08
83152;BME280;73381;58.502;8.624;2024-03-08T08:27:59;101424.47;;;-2.27;85.92
83152;BME280;73381;58.502;8.624;2024-03-08T08:31:02;101435.50;;;-2.06;85.60
83152;BME280;73381;58.502;8.624;2024-03-08T08:34:03;101449.69;;;-1.61;84.54
83152;BME280;73381;58.502;8.624;2024-03-08T08:37:07;101422.94;;;-1.60;84.45
83152;BME280;73381;58.502;8.624;2024-03-08T08:40:13;101460.56;;;-1.30;83.99
83152;BME280;73381;58.502;8.624;2024-03-08T08:43:16;101455.22;;;-1.18;83.49
83152;BME280;73381;58.502;8.624;2024-03-08T08:46:18;101455.84;;;-1.01;83.23
83152;BME280;73381;58.502;8.624;2024-03-08T08:49:28;101324.41;;;-1.53;82.88
83152;BME280;73381;58.502;8.624;2024-03-08T08:52:32;101429.47;;;-0.69;82.10
83152;BME280;73381;58.502;8.624;2024-03-08T08:55:34;101456.66;;;-0.37;81.75
83152;BME280;73381;58.502;8.624;2024-03-08T09:14:54;101304.69;;;-0.07;77.47
83152;BME280;73381;58.502;8.624;2024-03-08T09:17:55;101443.84;;;0.91;75.54
83152;BME280;73381;58.502;8.624;2024-03-08T09:20:58;101427.91;;;1.06;75.66
83152;BME280;73381;58.502;8.624;2024-03-08T09:24:00;101177.03;;;-0.26;74.88
83152;BME280;73381;58.502;8.624;2024-03-08T09:27:04;101216.75;;;0.18;73.87
83152;BME280;73381;58.502;8.624;2024-03-08T09:36:27;101398.94;;;1.57;71.92
83152;BME280;73381;58.502;8.624;2024-03-08T09:39:29;101400.28;;;1.73;71.11
83152;BME280;73381;58.502;8.624;2024-03-08T09:52:21;101152.53;;;0.60;69.31
83152;BME280;73381;58.502;8.624;2024-03-08T09:55:27;101386.09;;;2.16;68.16
83152;BME280;73381;58.502;8.624;2024-03-08T09:58:30;101374.44;;;2.29;66.72
83152;BME280;73381;58.502;8.624;2024-03-08T10:01:33;101372.50;;;2.36;66.31
83152;BME280;73381;58.502;8.624;2024-03-08T10:07:56;100906.56;;;-0.39;64.64
83152;BME280;73381;58.502;8.624;2024-03-08T10:11:04;101331.25;;;2.21;65.33
83152;BME280;73381;58.502;8.624;2024-03-08T10:14:07;101371.16;;;2.54;65.51
83152;BME280;73381;58.502;8.624;2024-03-08T10:17:10;101358.50;;;2.70;62.90
83152;BME280;73381;58.502;8.624;2024-03-08T10:20:14;101358.19;;;2.79;62.88
83152;BME280;73381;58.502;8.624;2024-03-08T10:23:18;101354.41;;;2.89;62.49
83152;BME280;73381;58.502;8.624;2024-03-08T10:26:21;101317.69;;;2.68;61.78
83152;BME280;73381;58.502;8.624;2024-03-08T10:29:23;101274.75;;;2.51;61.58
83152;BME280;73381;58.502;8.624;2024-03-08T10:32:25;101347.06;;;3.02;63.06
83152;BME280;73381;58.502;8.624;2024-03-08T10:35:27;101349.06;;;3.20;61.56
83152;BME280;73381;58.502;8.624;2024-03-08T10:38:31;101109.13;;;1.86;62.45
83152;BME280;73381;58.502;8.624;2024-03-08T10:41:35;101341.84;;;3.54;60.43
83152;BME280;73381;58.502;8.624;2024-03-08T10:48:21;101245.47;;;3.22;59.30
83152;BME280;73381;58.502;8.624;2024-03-08T10:51:29;100862.44;;;0.84;59.93
83152;BME280;73381;58.502;8.624;2024-03-08T10:57:51;101274.25;;;3.70;59.01
83152;BME280;73381;58.502;8.624;2024-03-08T11:00:54;101331.19;;;4.10;59.10
83152;BME280;73381;58.502;8.624;2024-03-08T11:03:56;101319.44;;;4.21;57.87
83152;BME280;73381;58.502;8.624;2024-03-08T11:07:00;101320.09;;;4.27;57.82
83152;BME280;73381;58.502;8.624;2024-03-08T11:10:03;101310.94;;;4.39;58.50
83152;BME280;73381;58.502;8.624;2024-03-08T11:13:32;101298.78;;;4.38;58.22
83152;BME280;73381;58.502;8.624;2024-03-08T11:19:46;100825.63;;;1.75;57.24
83152;BME280;73381;58.502;8.624;2024-03-08T11:22:49;101254.16;;;4.19;55.74
83152;BME280;73381;58.502;8.624;2024-03-08T11:25:52;101296.84;;;4.87;55.85
83152;BME280;73381;58.502;8.624;2024-03-08T11:28:55;101306.19;;;4.94;56.96
83152;BME280;73381;58.502;8.624;2024-03-08T11:32:03;101286.75;;;4.99;54.87
83152;BME280;73381;58.502;8.624;2024-03-08T11:35:07;101186.78;;;4.47;54.72
83152;BME280;73381;58.502;8.624;2024-03-08T11:41:28;101286.72;;;5.42;54.51
83152;BME280;73381;58.502;8.624;2024-03-08T11:44:31;101288.47;;;5.61;54.17
83152;BME280;73381;58.502;8.624;2024-03-08T11:47:34;101273.22;;;5.71;53.02
83152;BME280;73381;58.502;8.624;2024-03-08T11:50:36;101233.81;;;5.54;53.03
83152;BME280;73381;58.502;8.624;2024-03-08T11:53:38;101287.28;;;5.89;54.19
83152;BME280;73381;58.502;8.624;2024-03-08T12:00:08;101245.53;;;6.05;53.33
83152;BME280;73381;58.502;8.624;2024-03-08T12:03:16;101263.28;;;6.37;53.30
83152;BME280;73381;58.502;8.624;2024-03-08T12:06:18;101267.78;;;6.52;51.29
83152;BME280;73381;58.502;8.624;2024-03-08T12:09:21;101204.44;;;6.24;51.31
83152;BME280;73381;58.502;8.624;2024-03-08T12:12:24;101197.63;;;6.20;50.90
83152;BME280;73381;58.502;8.624;2024-03-08T12:18:42;101083.97;;;5.83;50.57
83152;BME280;73381;58.502;8.624;2024-03-08T12:28:07;101155.91;;;6.33;52.65
83152;BME280;73381;58.502;8.624;2024-03-08T12:34:26;101221.06;;;7.30;53.13
83152;BME280;73381;58.502;8.624;2024-03-08T12:37:28;100850.16;;;5.25;53.38
83152;BME280;73381;58.502;8.624;2024-03-08T12:40:31;101213.19;;;7.80;53.14
83152;BME280;73381;58.502;8.624;2024-03-08T12:46:50;101209.25;;;8.20;52.27
83152;BME280;73381;58.502;8.624;2024-03-08T12:49:56;101112.41;;;7.80;53.02
83152;BME280;73381;58.502;8.624;2024-03-08T12:52:59;100939.91;;;6.67;51.53
83152;BME280;73381;58.502;8.624;2024-03-08T12:56:03;101198.47;;;8.41;51.36
83152;BME280;73381;58.502;8.624;2024-03-08T12:59:07;101194.22;;;8.54;51.07
83152;BME280;73381;58.502;8.624;2024-03-08T13:02:09;101186.13;;;8.73;50.27
83152;BME280;73381;58.502;8.624;2024-03-08T13:05:12;101075.00;;;8.06;49.74
83152;BME280;73381;58.502;8.624;2024-03-08T13:11:22;101175.41;;;9.06;50.90
83152;BME280;73381;58.502;8.624;2024-03-08T13:17:42;101166.03;;;9.44;49.42
83152;BME280;73381;58.502;8.624;2024-03-08T13:20:45;101167.16;;;9.55;49.05
83152;BME280;73381;58.502;8.624;2024-03-08T13:23:49;101145.41;;;9.51;47.99
83152;BME280;73381;58.502;8.624;2024-03-08T13:26:50;101150.38;;;9.56;48.23
83152;BME280;73381;58.502;8.624;2024-03-08T13:49:22;101140.53;;;9.45;45.74
83152;BME280;73381;58.502;8.624;2024-03-08T13:52:26;101038.09;;;8.96;46.02
83152;BME280;73381;58.502;8.624;2024-03-08T13:55:28;101084.47;;;8.84;47.41
83152;BME280;73381;58.502;8.624;2024-03-08T14:01:40;101119.34;;;9.32;47.49
83152;BME280;73381;58.502;8.624;2024-03-08T14:04:44;100891.66;;;7.78;46.68
83152;BME280;73381;58.502;8.624;2024-03-08T14:11:06;101113.69;;;9.38;47.47
83152;BME280;73381;58.502;8.624;2024-03-08T14:14:08;101104.28;;;9.34;47.80
83152;BME280;73381;58.502;8.624;2024-03-08T14:17:10;100947.81;;;8.66;49.01
83152;BME280;73381;58.502;8.624;2024-03-08T14:23:31;100805.16;;;7.73;44.49
83152;BME280;73381;58.502;8.624;2024-03-08T14:26:44;101106.88;;;9.63;45.43
83152;BME280;73381;58.502;8.624;2024-03-08T14:30:04;101087.03;;;9.57;45.60
83152;BME280;73381;58.502;8.624;2024-03-08T14:33:07;101092.47;;;9.54;46.60
83152;BME280;73381;58.502;8.624;2024-03-08T14:39:46;101051.50;;;9.63;45.34
83152;BME280;73381;58.502;8.624;2024-03-08T14:45:59;100758.22;;;7.82;45.93
83152;BME280;73381;58.502;8.624;2024-03-08T14:52:24;100828.09;;;8.71;46.51
83152;BME280;73381;58.502;8.624;2024-03-08T15:09:40;100670.09;;;7.03;47.88
83152;BME280;73381;58.502;8.624;2024-03-08T15:15:59;100806.25;;;8.83;46.77
83152;BME280;73381;58.502;8.624;2024-03-08T15:22:08;101049.75;;;10.69;44.42
83152;BME280;73381;58.502;8.624;2024-03-08T15:28:23;101041.16;;;10.53;42.97
83152;BME280;73381;58.502;8.624;2024-03-08T15:37:52;100663.13;;;7.75;44.07
83152;BME280;73381;58.502;8.624;2024-03-08T15:40:53;100891.50;;;9.09;44.09
83152;BME280;73381;58.502;8.624;2024-03-08T15:50:44;101006.97;;;10.64;43.44
83152;BME280;73381;58.502;8.624;2024-03-08T16:10:43;100987.41;;;10.92;42.38
83152;BME280;73381;58.502;8.624;2024-03-08T16:34:11;100987.00;;;10.48;45.10
83152;BME280;73381;58.502;8.624;2024-03-08T16:43:42;100483.44;;;6.35;45.13
83152;BME280;73381;58.502;8.624;2024-03-08T16:49:50;100814.59;;;8.06;48.44
83152;BME280;73381;58.502;8.624;2024-03-08T16:59:21;100845.84;;;6.75;48.78
83152;BME280;73381;58.502;8.624;2024-03-08T17:02:26;100591.75;;;5.10;50.18
83152;BME280;73381;58.502;8.624;2024-03-08T17:05:30;100929.19;;;7.03;54.95
83152;BME280;73381;58.502;8.624;2024-03-08T17:08:32;100999.88;;;7.23;54.98
83152;BME280;73381;58.502;8.624;2024-03-08T17:17:57;100934.72;;;6.49;54.15
83152;BME280;73381;58.502;8.624;2024-03-08T17:21:01;100814.59;;;5.55;54.99
83152;BME280;73381;58.502;8.624;2024-03-08T17:24:04;101004.56;;;6.52;56.85
83152;BME280;73381;58.502;8.624;2024-03-08T17:33:26;101007.47;;;5.75;57.78
83152;BME280;73381;58.502;8.624;2024-03-08T17:39:43;100994.34;;;5.20;58.75
83152;BME280;73381;58.502;8.624;2024-03-08T17:49:10;101008.19;;;4.66;59.94
83152;BME280;73381;58.502;8.624;2024-03-08T17:52:13;100920.16;;;3.85;60.65
83152;BME280;73381;58.502;8.624;2024-03-08T17:55:17;100847.84;;;3.23;61.00
83152;BME280;73381;58.502;8.624;2024-03-08T18:01:21;100766.16;;;2.57;61.53
83152;BME280;73381;58.502;8.624;2024-03-08T18:07:42;101002.53;;;3.72;62.55
83152;BME280;73381;58.502;8.624;2024-03-08T18:10:45;100947.16;;;3.20;63.00
83152;BME280;73381;58.502;8.624;2024-03-08T18:13:48;101002.06;;;3.40;63.36
83152;BME280;73381;58.502;8.624;2024-03-08T18:16:50;100995.38;;;2.86;63.94
83152;BME280;73381;58.502;8.624;2024-03-08T18:19:52;100971.72;;;2.91;64.09
83152;BME280;73381;58.502;8.624;2024-03-08T18:22:55;100750.50;;;1.40;64.14
83152;BME280;73381;58.502;8.624;2024-03-08T18:29:12;100943.81;;;2.46;65.42
83152;BME280;73381;58.502;8.624;2024-03-08T18:32:14;101002.97;;;2.69;65.86
83152;BME280;73381;58.502;8.624;2024-03-08T18:35:16;100990.19;;;2.61;66.58
83152;BME280;73381;58.502;8.624;2024-03-08T18:38:18;100994.09;;;2.50;66.07
83152;BME280;73381;58.502;8.624;2024-03-08T18:41:21;100897.13;;;1.65;66.97
83152;BME280;73381;58.502;8.624;2024-03-08T18:44:24;101000.19;;;2.24;67.99
83152;BME280;73381;58.502;8.624;2024-03-08T18:47:26;100991.38;;;2.03;67.80
83152;BME280;73381;58.502;8.624;2024-03-08T18:50:28;100990.84;;;1.92;69.08
83152;BME280;73381;58.502;8.624;2024-03-08T18:53:30;100888.09;;;1.23;68.54
83152;BME280;73381;58.502;8.624;2024-03-08T18:56:35;100987.50;;;1.62;69.66
83152;BME280;73381;58.502;8.624;2024-03-08T18:59:47;100987.22;;;1.43;69.87
83152;BME280;73381;58.502;8.624;2024-03-08T19:02:52;100992.06;;;1.26;70.62
83152;BME280;73381;58.502;8.624;2024-03-08T19:06:00;100964.06;;;1.06;70.81
83152;BME280;73381;58.502;8.624;2024-03-08T19:09:04;100864.78;;;0.34;70.57
83152;BME280;73381;58.502;8.624;2024-03-08T19:12:08;100987.53;;;1.04;70.53
83152;BME280;73381;58.502;8.624;2024-03-08T19:15:14;100991.13;;;1.00;71.27
83152;BME280;73381;58.502;8.624;2024-03-08T19:18:16;100984.06;;;0.74;71.24
83152;BME280;73381;58.502;8.624;2024-03-08T19:21:18;100976.31;;;0.40;73.15
83152;BME280;73381;58.502;8.624;2024-03-08T19:24:22;100992.84;;;0.38;73.07
83152;BME280;73381;58.502;8.624;2024-03-08T19:27:24;100989.63;;;0.28;74.22
83152;BME280;73381;58.502;8.624;2024-03-08T19:30:29;100989.63;;;0.29;73.23
83152;BME280;73381;58.502;8.624;2024-03-08T19:33:30;100949.38;;;0.12;73.80
83152;BME280;73381;58.502;8.624;2024-03-08T19:36:33;100967.16;;;0.27;73.55
83152;BME280;73381;58.502;8.624;2024-03-08T19:39:35;100920.41;;;-0.06;73.12
83152;BME280;73381;58.502;8.624;2024-03-08T19:42:37;100991.53;;;0.21;73.41
83152;BME280;73381;58.502;8.624;2024-03-08T19:45:40;100989.59;;;-0.05;73.95
83152;BME280;73381;58.502;8.624;2024-03-08T19:48:42;100983.69;;;-0.10;74.51
83152;BME280;73381;58.502;8.624;2024-03-08T19:51:44;100944.59;;;-0.38;74.80
83152;BME280;73381;58.502;8.624;2024-03-08T19:54:46;100979.25;;;-0.06;74.47
83152;BME280;73381;58.502;8.624;2024-03-08T19:57:49;100968.97;;;-0.09;74.69